sensor_id;sensor_type;location;lat;lon;timestamp;P1;durP1;ratioP1;P2;durP2;ratioP2
72720;SDS011;60835;50.974;10.322;2023-01-29T00:01:54;7.13;;;4.35;;
72720;SDS011;60835;50.974;10.322;2023-01-29T00:04:21;4.65;;;3.58;;
72720;SDS011;60835;50.974;10.322;2023-01-29T00:06:48;7.30;;;4.10;;
72720;SDS011;60835;50.974;10.322;2023-01-29T00:09:16;6.88;;;4.15;;
72720;SDS011;60835;50.974;10.322;2023-01-29T00:11:43;7.68;;;4.10;;
72720;SDS011;60835;50.974;10.322;2023-01-29T00:14:10;9.10;;;4.03;;
72720;SDS011;60835;50.974;10.322;2023-01-29T00:16:36;7.50;;;4.47;;
72720;SDS011;60835;50.974;10.322;2023-01-29T00:19:03;7.65;;;4.63;;
72720;SDS011;60835;50.974;10.322;2023-01-29T00:21:30;7.38;;;4.57;;
72720;SDS011;60835;50.974;10.322;2023-01-29T00:23:57;7.78;;;4.20;;
72720;SDS011;60835;50.974;10.322;2023-01-29T00:26:25;9.13;;;5.10;;
72720;SDS011;60835;50.974;10.322;2023-01-29T00:28:52;8.52;;;4.38;;
72720;SDS011;60835;50.974;10.322;2023-01-29T00:31:20;11.35;;;5.07;;
72720;SDS011;60835;50.974;10.322;2023-01-29T00:33:49;9.20;;;4.95;;
72720;SDS011;60835;50.974;10.322;2023-01-29T00:36:19;7.15;;;4.80;;
72720;SDS011;60835;50.974;10.322;2023-01-29T00:38:47;8.98;;;5.40;;
72720;SDS011;60835;50.974;10.322;2023-01-29T00:41:27;13.45;;;5.35;;
72720;SDS011;60835;50.974;10.322;2023-01-29T00:44:16;8.25;;;5.55;;
72720;SDS011;60835;50.974;10.322;2023-01-29T00:47:02;8.52;;;5.25;;
72720;SDS011;60835;50.974;10.322;2023-01-29T00:49:29;8.57;;;5.32;;
72720;SDS011;60835;50.974;10.322;2023-01-29T00:52:03;7.68;;;4.85;;
72720;SDS011;60835;50.974;10.322;2023-01-29T00:54:48;10.63;;;5.90;;
72720;SDS011;60835;50.974;10.322;2023-01-29T00:57:15;13.73;;;6.20;;
72720;SDS011;60835;50.974;10.322;2023-01-29T00:59:41;10.23;;;5.68;;
72720;SDS011;60835;50.974;10.322;2023-01-29T01:02:08;10.38;;;5.75;;
72720;SDS011;60835;50.974;10.322;2023-01-29T01:04:53;10.88;;;6.07;;
72720;SDS011;60835;50.974;10.322;2023-01-29T01:07:19;9.15;;;5.75;;
72720;SDS011;60835;50.974;10.322;2023-01-29T01:09:46;11.75;;;5.68;;
72720;SDS011;60835;50.974;10.322;2023-01-29T01:12:33;7.93;;;5.18;;
72720;SDS011;60835;50.974;10.322;2023-01-29T01:15:00;13.15;;;6.03;;
72720;SDS011;60835;50.974;10.322;2023-01-29T01:17:26;11.45;;;6.00;;
72720;SDS011;60835;50.974;10.322;2023-01-29T01:19:52;13.10;;;6.07;;
72720;SDS011;60835;50.974;10.322;2023-01-29T01:22:19;10.95;;;6.13;;
72720;SDS011;60835;50.974;10.322;2023-01-29T01:24:45;11.43;;;5.85;;
72720;SDS011;60835;50.974;10.322;2023-01-29T01:27:12;9.18;;;5.78;;
72720;SDS011;60835;50.974;10.322;2023-01-29T01:29:39;9.32;;;5.10;;
72720;SDS011;60835;50.974;10.322;2023-01-29T01:32:06;8.48;;;5.32;;
72720;SDS011;60835;50.974;10.322;2023-01-29T01:34:32;11.88;;;5.60;;
72720;SDS011;60835;50.974;10.322;2023-01-29T01:36:59;11.70;;;6.07;;
72720;SDS011;60835;50.974;10.322;2023-01-29T01:39:25;8.45;;;5.28;;
72720;SDS011;60835;50.974;10.322;2023-01-29T01:41:52;9.70;;;5.93;;
72720;SDS011;60835;50.974;10.322;2023-01-29T01:47:18;11.27;;;6.05;;
72720;SDS011;60835;50.974;10.322;2023-01-29T01:49:50;9.77;;;5.50;;
72720;SDS011;60835;50.974;10.322;2023-01-29T01:52:17;9.05;;;5.32;;
72720;SDS011;60835;50.974;10.322;2023-01-29T01:54:44;11.70;;;6.38;;
72720;SDS011;60835;50.974;10.322;2023-01-29T01:57:13;13.35;;;6.55;;
72720;SDS011;60835;50.974;10.322;2023-01-29T01:59:55;14.05;;;6.63;;
72720;SDS011;60835;50.974;10.322;2023-01-29T02:02:36;8.93;;;5.57;;
72720;SDS011;60835;50.974;10.322;2023-01-29T02:05:23;10.50;;;5.30;;
72720;SDS011;60835;50.974;10.322;2023-01-29T02:08:09;11.05;;;6.70;;
72720;SDS011;60835;50.974;10.322;2023-01-29T02:10:55;9.40;;;5.93;;
72720;SDS011;60835;50.974;10.322;2023-01-29T02:13:22;12.45;;;6.35;;
72720;SDS011;60835;50.974;10.322;2023-01-29T02:15:49;12.20;;;5.95;;
72720;SDS011;60835;50.974;10.322;2023-01-29T02:18:16;9.65;;;5.47;;
72720;SDS011;60835;50.974;10.322;2023-01-29T02:29:46;11.23;;;6.38;;
72720;SDS011;60835;50.974;10.322;2023-01-29T02:32:34;8.90;;;6.07;;
72720;SDS011;60835;50.974;10.322;2023-01-29T02:35:10;13.02;;;6.70;;
72720;SDS011;60835;50.974;10.322;2023-01-29T02:40:54;11.05;;;6.22;;
72720;SDS011;60835;50.974;10.322;2023-01-29T02:43:32;12.07;;;6.50;;
72720;SDS011;60835;50.974;10.322;2023-01-29T02:51:21;11.60;;;5.85;;
72720;SDS011;60835;50.974;10.322;2023-01-29T02:54:03;12.93;;;6.07;;
72720;SDS011;60835;50.974;10.322;2023-01-29T02:56:43;10.30;;;6.78;;
72720;SDS011;60835;50.974;10.322;2023-01-29T02:59:25;10.50;;;5.97;;
72720;SDS011;60835;50.974;10.322;2023-01-29T03:01:59;11.50;;;6.10;;
72720;SDS011;60835;50.974;10.322;2023-01-29T03:04:35;15.10;;;7.18;;
72720;SDS011;60835;50.974;10.322;2023-01-29T03:07:10;12.02;;;7.00;;
72720;SDS011;60835;50.974;10.322;2023-01-29T03:10:03;17.85;;;8.70;;
72720;SDS011;60835;50.974;10.322;2023-01-29T03:12:37;12.85;;;6.75;;
72720;SDS011;60835;50.974;10.322;2023-01-29T03:15:10;11.68;;;6.57;;
72720;SDS011;60835;50.974;10.322;2023-01-29T03:20:14;11.70;;;7.00;;
72720;SDS011;60835;50.974;10.322;2023-01-29T03:22:45;11.93;;;6.95;;
72720;SDS011;60835;50.974;10.322;2023-01-29T03:25:19;11.60;;;7.47;;
72720;SDS011;60835;50.974;10.322;2023-01-29T03:28:06;12.93;;;6.88;;
72720;SDS011;60835;50.974;10.322;2023-01-29T03:30:56;12.57;;;7.03;;
72720;SDS011;60835;50.974;10.322;2023-01-29T03:33:50;10.85;;;6.78;;
72720;SDS011;60835;50.974;10.322;2023-01-29T03:36:26;13.13;;;7.15;;
72720;SDS011;60835;50.974;10.322;2023-01-29T03:39:04;10.73;;;6.47;;
72720;SDS011;60835;50.974;10.322;2023-01-29T03:41:32;12.77;;;7.30;;
72720;SDS011;60835;50.974;10.322;2023-01-29T03:46:54;11.98;;;6.85;;
72720;SDS011;60835;50.974;10.322;2023-01-29T03:49:39;14.60;;;7.85;;
72720;SDS011;60835;50.974;10.322;2023-01-29T03:52:20;14.85;;;7.53;;
72720;SDS011;60835;50.974;10.322;2023-01-29T03:55:06;13.80;;;7.13;;
72720;SDS011;60835;50.974;10.322;2023-01-29T04:00:46;14.98;;;7.65;;
72720;SDS011;60835;50.974;10.322;2023-01-29T04:03:25;11.43;;;6.47;;
72720;SDS011;60835;50.974;10.322;2023-01-29T04:09:06;10.50;;;6.43;;
72720;SDS011;60835;50.974;10.322;2023-01-29T04:11:41;14.13;;;7.68;;
72720;SDS011;60835;50.974;10.322;2023-01-29T04:14:10;14.95;;;6.88;;
72720;SDS011;60835;50.974;10.322;2023-01-29T04:16:40;18.42;;;7.95;;
72720;SDS011;60835;50.974;10.322;2023-01-29T04:19:11;16.05;;;8.35;;
72720;SDS011;60835;50.974;10.322;2023-01-29T04:21:38;15.00;;;7.53;;
72720;SDS011;60835;50.974;10.322;2023-01-29T04:24:06;13.40;;;7.78;;
72720;SDS011;60835;50.974;10.322;2023-01-29T04:26:41;12.40;;;7.03;;
72720;SDS011;60835;50.974;10.322;2023-01-29T04:38:40;13.43;;;7.75;;
72720;SDS011;60835;50.974;10.322;2023-01-29T04:44:39;12.15;;;7.28;;
72720;SDS011;60835;50.974;10.322;2023-01-29T04:47:35;14.38;;;7.85;;
72720;SDS011;60835;50.974;10.322;2023-01-29T04:50:56;12.50;;;8.10;;
72720;SDS011;60835;50.974;10.322;2023-01-29T04:58:38;13.98;;;8.00;;
72720;SDS011;60835;50.974;10.322;2023-01-29T05:01:10;15.25;;;8.52;;
72720;SDS011;60835;50.974;10.322;2023-01-29T05:03:40;23.02;;;9.88;;
72720;SDS011;60835;50.974;10.322;2023-01-29T05:06:10;13.15;;;7.97;;
72720;SDS011;60835;50.974;10.322;2023-01-29T05:08:38;15.73;;;7.93;;
72720;SDS011;60835;50.974;10.322;2023-01-29T05:11:06;18.17;;;9.65;;
72720;SDS011;60835;50.974;10.322;2023-01-29T05:13:38;17.83;;;8.02;;
72720;SDS011;60835;50.974;10.322;2023-01-29T05:18:47;15.13;;;7.80;;
72720;SDS011;60835;50.974;10.322;2023-01-29T05:21:14;14.45;;;8.20;;
72720;SDS011;60835;50.974;10.322;2023-01-29T05:23:40;13.43;;;7.95;;
72720;SDS011;60835;50.974;10.322;2023-01-29T05:26:18;13.23;;;7.22;;
72720;SDS011;60835;50.974;10.322;2023-01-29T05:29:05;13.68;;;8.00;;
72720;SDS011;60835;50.974;10.322;2023-01-29T05:31:32;14.35;;;7.65;;
72720;SDS011;60835;50.974;10.322;2023-01-29T05:33:59;11.98;;;7.57;;
72720;SDS011;60835;50.974;10.322;2023-01-29T05:36:25;14.55;;;7.60;;
72720;SDS011;60835;50.974;10.322;2023-01-29T05:38:52;15.57;;;7.82;;
72720;SDS011;60835;50.974;10.322;2023-01-29T05:41:18;13.52;;;7.55;;
72720;SDS011;60835;50.974;10.322;2023-01-29T05:43:47;13.77;;;7.90;;
72720;SDS011;60835;50.974;10.322;2023-01-29T05:46:13;16.38;;;8.30;;
72720;SDS011;60835;50.974;10.322;2023-01-29T05:48:40;13.25;;;7.53;;
72720;SDS011;60835;50.974;10.322;2023-01-29T05:51:06;13.18;;;7.57;;
72720;SDS011;60835;50.974;10.322;2023-01-29T05:53:33;16.02;;;7.80;;
72720;SDS011;60835;50.974;10.322;2023-01-29T05:56:00;12.73;;;6.68;;
72720;SDS011;60835;50.974;10.322;2023-01-29T05:58:28;16.33;;;7.82;;
72720;SDS011;60835;50.974;10.322;2023-01-29T06:00:56;13.55;;;7.68;;
72720;SDS011;60835;50.974;10.322;2023-01-29T06:03:23;14.15;;;7.53;;
72720;SDS011;60835;50.974;10.322;2023-01-29T06:05:50;13.65;;;7.47;;
72720;SDS011;60835;50.974;10.322;2023-01-29T06:08:16;11.98;;;7.45;;
72720;SDS011;60835;50.974;10.322;2023-01-29T06:10:42;18.40;;;7.97;;
72720;SDS011;60835;50.974;10.322;2023-01-29T06:13:09;12.45;;;6.90;;
72720;SDS011;60835;50.974;10.322;2023-01-29T06:15:38;14.27;;;6.80;;
72720;SDS011;60835;50.974;10.322;2023-01-29T06:18:05;12.20;;;7.07;;
72720;SDS011;60835;50.974;10.322;2023-01-29T06:20:33;13.35;;;7.30;;
72720;SDS011;60835;50.974;10.322;2023-01-29T06:22:59;18.83;;;7.55;;
72720;SDS011;60835;50.974;10.322;2023-01-29T06:25:26;15.18;;;7.80;;
72720;SDS011;60835;50.974;10.322;2023-01-29T06:27:52;14.63;;;8.95;;
72720;SDS011;60835;50.974;10.322;2023-01-29T06:30:19;11.95;;;7.30;;
72720;SDS011;60835;50.974;10.322;2023-01-29T06:32:45;18.02;;;8.93;;
72720;SDS011;60835;50.974;10.322;2023-01-29T06:35:12;10.82;;;7.25;;
72720;SDS011;60835;50.974;10.322;2023-01-29T06:37:38;12.68;;;7.43;;
72720;SDS011;60835;50.974;10.322;2023-01-29T06:40:05;10.90;;;7.03;;
72720;SDS011;60835;50.974;10.322;2023-01-29T06:42:33;12.20;;;7.05;;
72720;SDS011;60835;50.974;10.322;2023-01-29T06:45:00;13.32;;;7.40;;
72720;SDS011;60835;50.974;10.322;2023-01-29T06:47:27;13.45;;;7.40;;
72720;SDS011;60835;50.974;10.322;2023-01-29T06:49:54;13.38;;;7.40;;
72720;SDS011;60835;50.974;10.322;2023-01-29T06:52:25;15.02;;;8.15;;
72720;SDS011;60835;50.974;10.322;2023-01-29T06:54:54;12.07;;;7.28;;
72720;SDS011;60835;50.974;10.322;2023-01-29T06:57:21;13.48;;;7.25;;
72720;SDS011;60835;50.974;10.322;2023-01-29T06:59:48;15.73;;;7.57;;
72720;SDS011;60835;50.974;10.322;2023-01-29T07:02:14;11.75;;;7.57;;
72720;SDS011;60835;50.974;10.322;2023-01-29T07:04:41;13.20;;;7.47;;
72720;SDS011;60835;50.974;10.322;2023-01-29T07:07:08;16.88;;;7.70;;
72720;SDS011;60835;50.974;10.322;2023-01-29T07:09:41;16.87;;;8.67;;
72720;SDS011;60835;50.974;10.322;2023-01-29T07:12:08;18.25;;;7.18;;
72720;SDS011;60835;50.974;10.322;2023-01-29T07:14:36;14.18;;;8.07;;
72720;SDS011;60835;50.974;10.322;2023-01-29T07:17:04;11.50;;;7.35;;
72720;SDS011;60835;50.974;10.322;2023-01-29T07:19:31;13.07;;;7.55;;
72720;SDS011;60835;50.974;10.322;2023-01-29T07:21:57;13.55;;;8.52;;
72720;SDS011;60835;50.974;10.322;2023-01-29T07:24:27;16.90;;;8.30;;
72720;SDS011;60835;50.974;10.322;2023-01-29T07:26:54;13.82;;;7.72;;
72720;SDS011;60835;50.974;10.322;2023-01-29T07:29:20;16.42;;;8.70;;
72720;SDS011;60835;50.974;10.322;2023-01-29T07:31:47;14.98;;;8.13;;
72720;SDS011;60835;50.974;10.322;2023-01-29T07:34:13;17.20;;;8.80;;
72720;SDS011;60835;50.974;10.322;2023-01-29T07:36:39;16.95;;;9.52;;
72720;SDS011;60835;50.974;10.322;2023-01-29T07:39:06;14.98;;;8.55;;
72720;SDS011;60835;50.974;10.322;2023-01-29T07:41:33;14.93;;;8.45;;
72720;SDS011;60835;50.974;10.322;2023-01-29T07:43:59;13.30;;;8.43;;
72720;SDS011;60835;50.974;10.322;2023-01-29T07:46:25;15.15;;;8.88;;
72720;SDS011;60835;50.974;10.322;2023-01-29T07:48:52;14.00;;;7.28;;
72720;SDS011;60835;50.974;10.322;2023-01-29T07:51:18;12.63;;;7.53;;
72720;SDS011;60835;50.974;10.322;2023-01-29T07:53:46;14.48;;;8.27;;
72720;SDS011;60835;50.974;10.322;2023-01-29T07:56:13;13.32;;;7.90;;
72720;SDS011;60835;50.974;10.322;2023-01-29T07:58:40;15.68;;;9.00;;
72720;SDS011;60835;50.974;10.322;2023-01-29T08:01:06;23.70;;;10.90;;
72720;SDS011;60835;50.974;10.322;2023-01-29T08:03:33;16.70;;;9.15;;
72720;SDS011;60835;50.974;10.322;2023-01-29T08:06:01;14.27;;;8.65;;
72720;SDS011;60835;50.974;10.322;2023-01-29T08:08:29;24.38;;;15.05;;
72720;SDS011;60835;50.974;10.322;2023-01-29T08:10:55;17.33;;;9.65;;
72720;SDS011;60835;50.974;10.322;2023-01-29T08:13:22;14.68;;;8.55;;
72720;SDS011;60835;50.974;10.322;2023-01-29T08:15:48;13.65;;;8.68;;
72720;SDS011;60835;50.974;10.322;2023-01-29T08:18:15;15.30;;;9.30;;
72720;SDS011;60835;50.974;10.322;2023-01-29T08:20:41;17.05;;;8.93;;
72720;SDS011;60835;50.974;10.322;2023-01-29T08:23:12;14.82;;;8.15;;
72720;SDS011;60835;50.974;10.322;2023-01-29T08:25:40;12.55;;;7.85;;
72720;SDS011;60835;50.974;10.322;2023-01-29T08:28:06;13.32;;;8.25;;
72720;SDS011;60835;50.974;10.322;2023-01-29T08:30:34;16.17;;;8.82;;
72720;SDS011;60835;50.974;10.322;2023-01-29T08:33:02;13.68;;;8.43;;
72720;SDS011;60835;50.974;10.322;2023-01-29T08:35:29;15.35;;;7.88;;
72720;SDS011;60835;50.974;10.322;2023-01-29T08:37:59;11.32;;;7.82;;
72720;SDS011;60835;50.974;10.322;2023-01-29T08:40:27;13.13;;;8.00;;
72720;SDS011;60835;50.974;10.322;2023-01-29T08:42:57;11.63;;;7.13;;
72720;SDS011;60835;50.974;10.322;2023-01-29T08:45:28;12.05;;;7.75;;
72720;SDS011;60835;50.974;10.322;2023-01-29T08:47:55;13.75;;;7.95;;
72720;SDS011;60835;50.974;10.322;2023-01-29T08:50:22;15.50;;;8.38;;
72720;SDS011;60835;50.974;10.322;2023-01-29T08:52:49;17.45;;;9.95;;
72720;SDS011;60835;50.974;10.322;2023-01-29T08:55:15;20.52;;;11.32;;
72720;SDS011;60835;50.974;10.322;2023-01-29T08:57:42;14.63;;;8.23;;
72720;SDS011;60835;50.974;10.322;2023-01-29T09:00:09;14.38;;;7.68;;
72720;SDS011;60835;50.974;10.322;2023-01-29T09:02:36;15.63;;;8.80;;
72720;SDS011;60835;50.974;10.322;2023-01-29T09:05:03;15.20;;;8.98;;
72720;SDS011;60835;50.974;10.322;2023-01-29T09:07:30;16.58;;;9.02;;
72720;SDS011;60835;50.974;10.322;2023-01-29T09:09:57;17.10;;;8.82;;
72720;SDS011;60835;50.974;10.322;2023-01-29T09:12:24;12.43;;;7.85;;
72720;SDS011;60835;50.974;10.322;2023-01-29T09:14:51;12.73;;;8.15;;
72720;SDS011;60835;50.974;10.322;2023-01-29T09:17:17;15.75;;;7.95;;
72720;SDS011;60835;50.974;10.322;2023-01-29T09:19:55;14.23;;;8.52;;
72720;SDS011;60835;50.974;10.322;2023-01-29T09:22:22;18.00;;;8.90;;
72720;SDS011;60835;50.974;10.322;2023-01-29T09:24:48;12.32;;;8.40;;
72720;SDS011;60835;50.974;10.322;2023-01-29T09:27:15;18.05;;;9.75;;
72720;SDS011;60835;50.974;10.322;2023-01-29T09:29:41;17.10;;;8.73;;
72720;SDS011;60835;50.974;10.322;2023-01-29T09:32:08;15.82;;;7.88;;
72720;SDS011;60835;50.974;10.322;2023-01-29T09:34:35;16.38;;;7.93;;
72720;SDS011;60835;50.974;10.322;2023-01-29T09:37:01;15.15;;;8.35;;
72720;SDS011;60835;50.974;10.322;2023-01-29T09:39:28;17.17;;;9.73;;
72720;SDS011;60835;50.974;10.322;2023-01-29T09:47:17;10.90;;;6.30;;
72720;SDS011;60835;50.974;10.322;2023-01-29T09:49:52;16.83;;;8.40;;
72720;SDS011;60835;50.974;10.322;2023-01-29T09:52:28;15.52;;;8.30;;
72720;SDS011;60835;50.974;10.322;2023-01-29T09:57:42;14.80;;;8.80;;
72720;SDS011;60835;50.974;10.322;2023-01-29T10:00:14;15.68;;;8.55;;
72720;SDS011;60835;50.974;10.322;2023-01-29T10:02:50;13.45;;;8.23;;
72720;SDS011;60835;50.974;10.322;2023-01-29T10:14:17;16.70;;;8.57;;
72720;SDS011;60835;50.974;10.322;2023-01-29T10:20:12;15.52;;;8.80;;
72720;SDS011;60835;50.974;10.322;2023-01-29T10:25:41;15.00;;;8.07;;
72720;SDS011;60835;50.974;10.322;2023-01-29T10:28:53;12.80;;;7.95;;
72720;SDS011;60835;50.974;10.322;2023-01-29T10:31:09;16.75;;;8.43;;
72720;SDS011;60835;50.974;10.322;2023-01-29T10:33:41;17.80;;;8.82;;
72720;SDS011;60835;50.974;10.322;2023-01-29T10:36:34;17.60;;;8.40;;
72720;SDS011;60835;50.974;10.322;2023-01-29T10:44:28;13.68;;;7.72;;
72720;SDS011;60835;50.974;10.322;2023-01-29T10:52:44;14.18;;;8.10;;
72720;SDS011;60835;50.974;10.322;2023-01-29T10:58:08;14.43;;;8.35;;
72720;SDS011;60835;50.974;10.322;2023-01-29T11:00:44;12.65;;;8.02;;
72720;SDS011;60835;50.974;10.322;2023-01-29T11:03:14;17.80;;;8.85;;
72720;SDS011;60835;50.974;10.322;2023-01-29T11:11:15;16.70;;;8.98;;
72720;SDS011;60835;50.974;10.322;2023-01-29T11:13:57;16.23;;;9.25;;
72720;SDS011;60835;50.974;10.322;2023-01-29T11:16:30;14.63;;;9.27;;
72720;SDS011;60835;50.974;10.322;2023-01-29T11:18:59;16.60;;;8.90;;
72720;SDS011;60835;50.974;10.322;2023-01-29T11:21:27;14.50;;;8.75;;
72720;SDS011;60835;50.974;10.322;2023-01-29T11:24:05;12.43;;;7.90;;
72720;SDS011;60835;50.974;10.322;2023-01-29T11:26:42;13.00;;;7.80;;
72720;SDS011;60835;50.974;10.322;2023-01-29T11:32:07;14.40;;;8.10;;
72720;SDS011;60835;50.974;10.322;2023-01-29T11:35:01;12.48;;;8.10;;
72720;SDS011;60835;50.974;10.322;2023-01-29T11:37:45;17.00;;;8.68;;
72720;SDS011;60835;50.974;10.322;2023-01-29T11:42:45;18.40;;;9.17;;
72720;SDS011;60835;50.974;10.322;2023-01-29T11:47:48;14.07;;;8.23;;
72720;SDS011;60835;50.974;10.322;2023-01-29T11:50:30;14.87;;;9.13;;
72720;SDS011;60835;50.974;10.322;2023-01-29T11:52:58;21.23;;;8.93;;
72720;SDS011;60835;50.974;10.322;2023-01-29T11:55:30;15.27;;;8.85;;
72720;SDS011;60835;50.974;10.322;2023-01-29T11:58:16;17.40;;;9.45;;
72720;SDS011;60835;50.974;10.322;2023-01-29T12:00:51;17.55;;;10.75;;
72720;SDS011;60835;50.974;10.322;2023-01-29T12:03:21;12.10;;;8.52;;
72720;SDS011;60835;50.974;10.322;2023-01-29T12:05:59;15.85;;;8.75;;
72720;SDS011;60835;50.974;10.322;2023-01-29T12:08:34;13.57;;;8.38;;
72720;SDS011;60835;50.974;10.322;2023-01-29T12:11:12;14.68;;;9.07;;
72720;SDS011;60835;50.974;10.322;2023-01-29T12:13:57;15.45;;;9.82;;
72720;SDS011;60835;50.974;10.322;2023-01-29T12:16:35;15.23;;;9.50;;
72720;SDS011;60835;50.974;10.322;2023-01-29T12:19:24;15.13;;;9.38;;
72720;SDS011;60835;50.974;10.322;2023-01-29T12:21:58;15.45;;;9.43;;
72720;SDS011;60835;50.974;10.322;2023-01-29T12:24:34;14.98;;;9.68;;
72720;SDS011;60835;50.974;10.322;2023-01-29T12:27:21;13.40;;;9.15;;
72720;SDS011;60835;50.974;10.322;2023-01-29T12:32:43;13.27;;;8.75;;
72720;SDS011;60835;50.974;10.322;2023-01-29T12:35:22;17.50;;;10.00;;
72720;SDS011;60835;50.974;10.322;2023-01-29T12:37:55;14.23;;;10.15;;
72720;SDS011;60835;50.974;10.322;2023-01-29T12:40:24;12.60;;;9.38;;
72720;SDS011;60835;50.974;10.322;2023-01-29T12:42:55;15.35;;;9.23;;
72720;SDS011;60835;50.974;10.322;2023-01-29T12:45:28;11.85;;;8.40;;
72720;SDS011;60835;50.974;10.322;2023-01-29T12:47:59;16.95;;;9.93;;
72720;SDS011;60835;50.974;10.322;2023-01-29T12:50:34;15.55;;;9.63;;
72720;SDS011;60835;50.974;10.322;2023-01-29T12:55:44;14.23;;;9.75;;
72720;SDS011;60835;50.974;10.322;2023-01-29T12:58:15;19.02;;;9.50;;
72720;SDS011;60835;50.974;10.322;2023-01-29T13:00:47;15.15;;;10.18;;
72720;SDS011;60835;50.974;10.322;2023-01-29T13:03:21;17.02;;;9.60;;
72720;SDS011;60835;50.974;10.322;2023-01-29T13:06:04;13.65;;;9.43;;
72720;SDS011;60835;50.974;10.322;2023-01-29T13:08:42;18.50;;;10.45;;
72720;SDS011;60835;50.974;10.322;2023-01-29T13:11:21;15.20;;;9.10;;
72720;SDS011;60835;50.974;10.322;2023-01-29T13:13:58;14.90;;;9.45;;
72720;SDS011;60835;50.974;10.322;2023-01-29T13:16:29;14.52;;;9.40;;
72720;SDS011;60835;50.974;10.322;2023-01-29T13:19:04;15.23;;;9.20;;
72720;SDS011;60835;50.974;10.322;2023-01-29T13:21:36;20.70;;;10.80;;
72720;SDS011;60835;50.974;10.322;2023-01-29T13:24:10;20.52;;;9.73;;
72720;SDS011;60835;50.974;10.322;2023-01-29T13:26:43;15.77;;;10.00;;
72720;SDS011;60835;50.974;10.322;2023-01-29T13:31:52;14.57;;;9.20;;
72720;SDS011;60835;50.974;10.322;2023-01-29T13:34:21;15.40;;;9.55;;
72720;SDS011;60835;50.974;10.322;2023-01-29T13:36:50;14.25;;;9.50;;
72720;SDS011;60835;50.974;10.322;2023-01-29T13:41:54;15.50;;;10.00;;
72720;SDS011;60835;50.974;10.322;2023-01-29T13:44:24;14.82;;;10.38;;
72720;SDS011;60835;50.974;10.322;2023-01-29T13:46:59;15.02;;;9.82;;
72720;SDS011;60835;50.974;10.322;2023-01-29T13:49:31;13.98;;;10.38;;
72720;SDS011;60835;50.974;10.322;2023-01-29T13:51:58;15.13;;;9.63;;
72720;SDS011;60835;50.974;10.322;2023-01-29T13:54:44;12.00;;;8.23;;
72720;SDS011;60835;50.974;10.322;2023-01-29T14:08:08;12.02;;;8.18;;
72720;SDS011;60835;50.974;10.322;2023-01-29T14:13:48;13.38;;;8.25;;
72720;SDS011;60835;50.974;10.322;2023-01-29T14:18:45;13.77;;;8.70;;
72720;SDS011;60835;50.974;10.322;2023-01-29T14:23:53;16.00;;;9.05;;
72720;SDS011;60835;50.974;10.322;2023-01-29T14:26:29;14.07;;;8.70;;
72720;SDS011;60835;50.974;10.322;2023-01-29T14:31:56;16.17;;;9.10;;
72720;SDS011;60835;50.974;10.322;2023-01-29T14:34:35;17.38;;;9.15;;
72720;SDS011;60835;50.974;10.322;2023-01-29T14:39:46;20.25;;;9.10;;
72720;SDS011;60835;50.974;10.322;2023-01-29T14:42:22;15.60;;;9.13;;
72720;SDS011;60835;50.974;10.322;2023-01-29T14:44:56;17.98;;;9.85;;
72720;SDS011;60835;50.974;10.322;2023-01-29T14:49:54;20.42;;;10.75;;
72720;SDS011;60835;50.974;10.322;2023-01-29T14:52:39;17.50;;;9.38;;
72720;SDS011;60835;50.974;10.322;2023-01-29T14:57:52;15.00;;;9.45;;
72720;SDS011;60835;50.974;10.322;2023-01-29T15:00:23;17.10;;;10.23;;
72720;SDS011;60835;50.974;10.322;2023-01-29T15:02:54;17.80;;;9.93;;
72720;SDS011;60835;50.974;10.322;2023-01-29T15:05:31;17.27;;;9.13;;
72720;SDS011;60835;50.974;10.322;2023-01-29T15:08:03;16.10;;;9.80;;
72720;SDS011;60835;50.974;10.322;2023-01-29T15:10:41;17.48;;;9.15;;
72720;SDS011;60835;50.974;10.322;2023-01-29T15:13:23;15.10;;;9.40;;
72720;SDS011;60835;50.974;10.322;2023-01-29T15:16:19;16.45;;;9.50;;
72720;SDS011;60835;50.974;10.322;2023-01-29T15:18:47;15.38;;;9.23;;
72720;SDS011;60835;50.974;10.322;2023-01-29T15:21:21;21.98;;;9.65;;
72720;SDS011;60835;50.974;10.322;2023-01-29T15:23:47;16.90;;;9.70;;
72720;SDS011;60835;50.974;10.322;2023-01-29T15:26:31;18.85;;;9.95;;
72720;SDS011;60835;50.974;10.322;2023-01-29T15:29:01;16.45;;;8.00;;
72720;SDS011;60835;50.974;10.322;2023-01-29T15:31:30;16.42;;;9.30;;
72720;SDS011;60835;50.974;10.322;2023-01-29T15:33:57;18.65;;;10.18;;
72720;SDS011;60835;50.974;10.322;2023-01-29T15:36:30;16.65;;;9.20;;
72720;SDS011;60835;50.974;10.322;2023-01-29T15:39:16;18.65;;;9.55;;
72720;SDS011;60835;50.974;10.322;2023-01-29T15:41:46;15.90;;;9.35;;
72720;SDS011;60835;50.974;10.322;2023-01-29T15:44:14;20.02;;;9.73;;
72720;SDS011;60835;50.974;10.322;2023-01-29T15:46:44;18.17;;;10.50;;
72720;SDS011;60835;50.974;10.322;2023-01-29T15:49:17;16.48;;;9.90;;
72720;SDS011;60835;50.974;10.322;2023-01-29T15:51:54;23.40;;;11.63;;
72720;SDS011;60835;50.974;10.322;2023-01-29T15:54:23;16.58;;;10.00;;
72720;SDS011;60835;50.974;10.322;2023-01-29T15:56:52;20.85;;;11.07;;
72720;SDS011;60835;50.974;10.322;2023-01-29T15:59:21;17.85;;;10.55;;
72720;SDS011;60835;50.974;10.322;2023-01-29T16:01:51;18.40;;;10.02;;
72720;SDS011;60835;50.974;10.322;2023-01-29T16:04:28;18.70;;;10.02;;
72720;SDS011;60835;50.974;10.322;2023-01-29T16:06:57;21.48;;;10.15;;
72720;SDS011;60835;50.974;10.322;2023-01-29T16:09:25;23.17;;;12.05;;
72720;SDS011;60835;50.974;10.322;2023-01-29T16:11:55;17.45;;;10.23;;
72720;SDS011;60835;50.974;10.322;2023-01-29T16:14:24;18.67;;;10.48;;
72720;SDS011;60835;50.974;10.322;2023-01-29T16:16:52;17.58;;;10.48;;
72720;SDS011;60835;50.974;10.322;2023-01-29T16:19:20;19.33;;;10.38;;
72720;SDS011;60835;50.974;10.322;2023-01-29T16:21:50;20.88;;;11.40;;
72720;SDS011;60835;50.974;10.322;2023-01-29T16:24:23;18.85;;;10.07;;
72720;SDS011;60835;50.974;10.322;2023-01-29T16:26:51;19.77;;;11.48;;
72720;SDS011;60835;50.974;10.322;2023-01-29T16:29:27;19.50;;;12.10;;
72720;SDS011;60835;50.974;10.322;2023-01-29T16:31:56;18.45;;;11.18;;
72720;SDS011;60835;50.974;10.322;2023-01-29T16:36:53;17.58;;;10.07;;
72720;SDS011;60835;50.974;10.322;2023-01-29T16:39:22;18.65;;;10.50;;
72720;SDS011;60835;50.974;10.322;2023-01-29T16:42:35;20.40;;;12.23;;
72720;SDS011;60835;50.974;10.322;2023-01-29T16:47:27;18.92;;;10.77;;
72720;SDS011;60835;50.974;10.322;2023-01-29T16:52:55;17.20;;;10.27;;
72720;SDS011;60835;50.974;10.322;2023-01-29T16:55:23;20.42;;;12.15;;
72720;SDS011;60835;50.974;10.322;2023-01-29T16:57:51;18.77;;;10.82;;
72720;SDS011;60835;50.974;10.322;2023-01-29T17:00:24;19.50;;;10.60;;
72720;SDS011;60835;50.974;10.322;2023-01-29T17:03:03;19.35;;;11.02;;
72720;SDS011;60835;50.974;10.322;2023-01-29T17:05:32;19.02;;;11.23;;
72720;SDS011;60835;50.974;10.322;2023-01-29T17:08:01;19.80;;;11.00;;
72720;SDS011;60835;50.974;10.322;2023-01-29T17:10:29;20.08;;;11.48;;
72720;SDS011;60835;50.974;10.322;2023-01-29T17:15:32;19.80;;;11.43;;
72720;SDS011;60835;50.974;10.322;2023-01-29T17:20:48;19.98;;;10.68;;
72720;SDS011;60835;50.974;10.322;2023-01-29T17:23:15;24.48;;;11.10;;
72720;SDS011;60835;50.974;10.322;2023-01-29T17:25:42;21.08;;;10.75;;